Time;durP1;ratioP1;P1;durP2;ratioP2;P2;SDS_P1;SDS_P2;PMS_P1;PMS_P2;Temp;Humidity;BMP_temperature;BMP_pressure;BME280_temperature;BME280_humidity;BME280_pressure;Samples;Min_cycle;Max_cycle;Signal;HPM_P1;HPM_P2
2023/06/29 00:02:16;;;;;;;28.40;13.30;;;;;;;18.85;100.00;98704.95;135318;1281;24399;-70
2023/06/29 00:05:21;;;;;;;;;;;;;;;18.64;100.00;98708.52;135341;1281;22516;-69
2023/06/29 00:08:23;;;;;;;27.90;13.80;;;;;;;18.63;100.00;98707.49;135379;1281;22528;-68
2023/06/29 00:11:26;;;;;;;30.30;14.20;;;;;;;18.68;100.00;98710.27;135368;1281;22974;-69
2023/06/29 00:14:28;;;;;;;27.20;14.00;;;;;;;18.71;100.00;98715.84;135340;1281;24208;-70
2023/06/29 00:17:31;;;;;;;29.60;16.00;;;;;;;18.69;100.00;98714.73;135363;1281;22533;-68
2023/06/29 00:20:35;;;;;;;30.60;16.10;;;;;;;18.58;100.00;98714.77;135368;1261;23889;-68
2023/06/29 00:23:38;;;;;;;30.70;15.80;;;;;;;18.44;100.00;98713.58;135346;1281;22552;-71
2023/06/29 00:26:41;;;;;;;35.60;17.50;;;;;;;18.46;100.00;98712.70;135312;1281;22532;-72
2023/06/29 00:29:43;;;;;;;35.30;17.80;;;;;;;18.52;100.00;98708.38;135363;1281;22774;-68
2023/06/29 00:32:46;;;;;;;34.80;19.90;;;;;;;18.52;100.00;98712.34;135339;1281;22639;-71
2023/06/29 00:35:49;;;;;;;37.70;19.50;;;;;;;18.52;100.00;98708.73;135342;1281;23090;-70
2023/06/29 00:38:52;;;;;;;37.80;19.30;;;;;;;18.57;100.00;98704.40;135331;1281;22526;-68
2023/06/29 00:41:54;;;;;;;35.70;20.10;;;;;;;18.60;100.00;98705.54;135338;1281;22533;-71
2023/06/29 00:44:57;;;;;;;38.40;20.30;;;;;;;18.65;100.00;98703.80;135297;1281;22551;-70
2023/06/29 00:47:59;;;;;;;36.80;20.60;;;;;;;18.66;100.00;98700.02;135333;1281;22546;-71
2023/06/29 00:51:01;;;;;;;;;;;;;;;18.61;100.00;98697.34;135313;1281;22504;-66
2023/06/29 00:54:04;;;;;;;41.50;19.90;;;;;;;18.54;100.00;98700.23;135255;1281;25414;-70
2023/06/29 00:57:08;;;;;;;;;;;;;;;18.59;100.00;98695.02;135337;1281;24381;-67
2023/06/29 01:00:11;;;;;;;40.20;21.30;;;;;;;18.61;100.00;98693.98;135291;1281;22545;-70
2023/06/29 01:03:15;;;;;;;38.90;20.30;;;;;;;18.63;100.00;98691.45;135310;1281;23332;-67
2023/06/29 01:06:17;;;;;;;35.50;20.40;;;;;;;18.66;100.00;98692.77;135347;1281;22527;-70
2023/06/29 01:09:20;;;;;;;39.30;20.00;;;;;;;18.61;100.00;98686.98;135330;1281;22522;-72
2023/06/29 01:12:23;;;;;;;35.90;20.70;;;;;;;18.71;100.00;98689.95;135309;1281;22547;-67
2023/06/29 01:15:26;;;;;;;33.60;20.10;;;;;;;18.78;100.00;98692.42;135358;1281;22537;-71
2023/06/29 01:18:28;;;;;;;;;;;;;;;18.86;100.00;98698.46;135379;1281;22545;-68
2023/06/29 01:21:31;;;;;;;37.60;20.60;;;;;;;18.88;100.00;98697.85;135327;1281;25341;-67
2023/06/29 01:24:33;;;;;;;;;;;;;;;18.98;100.00;98697.61;135348;1281;22490;-69
2023/06/29 01:27:36;;;;;;;39.40;21.30;;;;;;;18.96;100.00;98693.96;135351;1281;23700;-69
2023/06/29 01:30:45;;;;;;;36.60;20.60;;;;;;;18.94;100.00;98694.67;135286;1281;22555;-64
2023/06/29 01:33:47;;;;;;;34.50;20.30;;;;;;;18.90;100.00;98698.09;135345;1258;24364;-69
2023/06/29 01:36:49;;;;;;;;;;;;;;;18.97;100.00;98694.34;135355;1269;22529;-70
2023/06/29 01:39:52;;;;;;;37.00;20.00;;;;;;;18.99;100.00;98695.42;135321;1281;22536;-66
2023/06/29 01:42:54;;;;;;;;;;;;;;;18.98;100.00;98694.31;135349;1281;22616;-66
2023/06/29 01:45:57;;;;;;;36.00;21.50;;;;;;;19.01;100.00;98697.57;135357;1262;22529;-67
2023/06/29 01:48:59;;;;;;;;;;;;;;;18.94;100.00;98698.09;135387;1281;25238;-67
2023/06/29 01:52:02;;;;;;;36.30;21.40;;;;;;;18.96;100.00;98701.73;135326;1281;22549;-69
2023/06/29 01:55:04;;;;;;;43.10;22.80;;;;;;;18.94;100.00;98700.52;135345;1281;25256;-70
2023/06/29 01:58:07;;;;;;;39.90;23.40;;;;;;;19.00;100.00;98702.71;135330;1281;22522;-68
2023/06/29 02:01:09;;;;;;;41.60;23.40;;;;;;;18.90;100.00;98703.34;135379;1281;22637;-68
2023/06/29 02:04:12;;;;;;;40.30;24.40;;;;;;;19.01;100.00;98698.75;135333;1281;22530;-67
2023/06/29 02:07:14;;;;;;;40.50;23.90;;;;;;;18.95;100.00;98698.51;135287;1281;22537;-68
2023/06/29 02:10:17;;;;;;;39.10;25.00;;;;;;;19.04;100.00;98692.31;135336;1281;22542;-71
2023/06/29 02:13:19;;;;;;;42.50;26.50;;;;;;;19.14;100.00;98696.59;135330;1281;22550;-71
2023/06/29 02:16:22;;;;;;;43.50;25.50;;;;;;;19.33;100.00;98697.77;135355;1281;22684;-71
2023/06/29 02:19:24;;;;;;;;;;;;;;;19.26;100.00;98697.71;135356;1281;22588;-69
2023/06/29 02:22:26;;;;;;;43.70;25.70;;;;;;;19.11;100.00;98701.73;135383;1281;25284;-69
2023/06/29 02:25:29;;;;;;;;;;;;;;;19.11;100.00;98703.11;135371;1281;22532;-72
2023/06/29 02:28:31;;;;;;;43.90;25.60;;;;;;;19.06;100.00;98708.16;135300;1280;22559;-74
2023/06/29 02:31:34;;;;;;;;;;;;;;;19.11;100.00;98712.19;135362;1281;22519;-71
2023/06/29 02:34:36;;;;;;;44.60;24.70;;;;;;;19.22;100.00;98710.67;135326;1280;23342;-70
2023/06/29 02:37:39;;;;;;;42.10;24.90;;;;;;;19.41;100.00;98716.80;135350;1281;22533;-69
2023/06/29 02:40:41;;;;;;;42.80;23.90;;;;;;;19.50;100.00;98721.09;135338;1281;22551;-67
2023/06/29 02:43:43;;;;;;;43.50;24.70;;;;;;;19.47;100.00;98723.16;135276;1262;22554;-69
2023/06/29 02:46:46;;;;;;;42.90;23.10;;;;;;;19.33;100.00;98723.41;135355;1281;25913;-67
2023/06/29 02:49:48;;;;;;;39.40;23.40;;;;;;;19.41;100.00;98725.83;135291;1281;22786;-68
2023/06/29 02:52:51;;;;;;;;;;;;;;;19.40;100.00;98721.87;135348;1281;22514;-72
2023/06/29 02:55:53;;;;;;;40.60;23.20;;;;;;;19.35;100.00;98723.79;131293;1281;5376397;-69
2023/06/29 02:58:56;;;;;;;;;;;;;;;19.32;100.00;98726.02;135269;1281;22620;-68
2023/06/29 03:01:58;;;;;;;40.00;24.40;;;;;;;19.14;100.00;98733.09;135297;1281;22531;-72
2023/06/29 03:05:01;;;;;;;;;;;;;;;19.13;100.00;98737.10;135374;1281;22539;-73
2023/06/29 03:08:03;;;;;;;40.00;24.20;;;;;;;19.13;100.00;98739.06;135325;1259;22542;-70
2023/06/29 03:11:06;;;;;;;40.40;24.60;;;;;;;19.13;100.00;98741.05;135297;1281;22536;-71
2023/06/29 03:14:08;;;;;;;;;;;;;;;19.16;100.00;98740.87;135346;1281;22687;-71
2023/06/29 03:17:13;;;;;;;44.30;26.00;;;;;;;19.15;100.00;98737.83;135345;1281;25419;-71
2023/06/29 03:20:15;;;;;;;40.70;24.40;;;;;;;19.17;100.00;98741.16;135338;1281;22533;-71
2023/06/29 03:23:18;;;;;;;43.40;25.10;;;;;;;19.24;100.00;98742.03;135325;1281;22561;-71
2023/06/29 03:26:20;;;;;;;41.50;24.40;;;;;;;19.19;100.00;98746.65;135332;1281;22533;-72
2023/06/29 03:29:23;;;;;;;39.00;21.90;;;;;;;19.19;100.00;98751.26;135328;1266;22540;-70
2023/06/29 03:32:25;;;;;;;41.80;24.00;;;;;;;19.25;100.00;98751.77;135309;1280;22529;-69
2023/06/29 03:35:28;;;;;;;42.00;24.50;;;;;;;19.38;100.00;98752.23;135336;1258;24217;-70
2023/06/29 03:38:30;;;;;;;;;;;;;;;19.38;100.00;98753.30;135334;1262;22500;-71
2023/06/29 03:41:32;;;;;;;39.20;23.70;;;;;;;19.31;100.00;98751.46;135272;1281;22657;-71
2023/06/29 03:44:36;;;;;;;38.50;22.40;;;;;;;19.29;100.00;98749.89;135286;1281;22542;-72
2023/06/29 03:47:38;;;;;;;45.40;24.30;;;;;;;19.32;100.00;98754.80;135305;1278;22565;-69
2023/06/29 03:50:41;;;;;;;41.30;24.90;;;;;;;19.34;100.00;98760.17;135234;1281;22670;-68
2023/06/29 03:53:44;;;;;;;39.60;23.80;;;;;;;19.36;100.00;98762.52;135304;1281;22531;-68
2023/06/29 03:56:47;;;;;;;42.70;24.70;;;;;;;19.39;100.00;98768.40;135305;1281;24268;-67
2023/06/29 03:59:49;;;;;;;46.70;26.00;;;;;;;19.48;100.00;98773.96;135319;1281;25374;-67
2023/06/29 04:02:52;;;;;;;38.00;22.90;;;;;;;19.61;100.00;98769.98;135302;1281;22556;-69
2023/06/29 04:05:55;;;;;;;38.30;23.40;;;;;;;19.69;100.00;98765.42;135296;1281;25406;-69
2023/06/29 04:08:57;;;;;;;37.10;21.10;;;;;;;19.69;100.00;98765.61;135295;1281;23860;-70
2023/06/29 04:12:00;;;;;;;36.60;20.40;;;;;;;19.79;100.00;98770.02;135314;1281;25454;-70
2023/06/29 04:15:02;;;;;;;40.20;21.70;;;;;;;19.74;100.00;98774.73;135302;1281;25466;-73
2023/06/29 04:18:04;;;;;;;38.20;21.40;;;;;;;19.62;100.00;98776.09;135298;1281;22540;-71
2023/06/29 04:21:07;;;;;;;38.60;23.60;;;;;;;19.73;100.00;98777.50;135320;1259;22576;-64
2023/06/29 04:24:09;;;;;;;39.30;22.90;;;;;;;19.60;100.00;98783.88;135305;1281;22516;-68
2023/06/29 04:27:12;;;;;;;38.90;21.70;;;;;;;19.66;100.00;98785.47;135297;1262;22548;-69
2023/06/29 04:30:17;;;;;;;38.10;22.20;;;;;;;19.75;100.00;98784.89;135316;1281;22550;-62
2023/06/29 04:33:21;;;;;;;37.90;23.00;;;;;;;19.70;100.00;98789.70;135340;1273;22777;-65
2023/06/29 04:36:23;;;;;;;39.40;23.00;;;;;;;19.74;100.00;98788.41;135309;1281;25253;-64
2023/06/29 04:39:26;;;;;;;37.00;22.10;;;;;;;19.82;100.00;98789.58;135295;1281;22551;-65
2023/06/29 04:42:30;;;;;;;38.60;22.50;;;;;;;19.79;100.00;98790.25;135277;1281;26479;-65
2023/06/29 04:45:33;;;;;;;37.60;23.00;;;;;;;19.98;100.00;98784.96;135317;1281;22552;-67
2023/06/29 04:48:37;;;;;;;39.60;22.40;;;;;;;20.07;100.00;98783.89;135324;1262;22525;-69
2023/06/29 04:51:40;;;;;;;40.80;23.80;;;;;;;20.29;100.00;98788.24;135325;1281;22546;-69
2023/06/29 04:54:42;;;;;;;37.10;21.90;;;;;;;20.60;100.00;98786.85;135295;1281;22547;-65
2023/06/29 04:57:45;;;;;;;36.70;22.20;;;;;;;20.70;100.00;98788.86;135266;1262;22580;-62
2023/06/29 05:00:47;;;;;;;36.70;21.30;;;;;;;20.69;100.00;98792.19;135303;1281;22623;-65
2023/06/29 05:03:50;;;;;;;37.30;21.50;;;;;;;20.61;100.00;98795.83;135305;1281;24394;-65
2023/06/29 05:06:52;;;;;;;35.30;21.70;;;;;;;20.60;100.00;98795.55;135261;1281;22565;-62
2023/06/29 05:09:55;;;;;;;34.50;20.80;;;;;;;20.64;100.00;98803.11;135297;1262;22582;-67
2023/06/29 05:12:57;;;;;;;32.90;20.00;;;;;;;20.59;100.00;98794.56;135321;1281;22525;-65
2023/06/29 05:16:00;;;;;;;33.80;20.50;;;;;;;20.72;100.00;98796.33;135277;1265;22530;-69
2023/06/29 05:19:03;;;;;;;36.70;20.30;;;;;;;20.92;100.00;98793.16;135252;1262;22541;-69
2023/06/29 05:22:06;;;;;;;36.60;17.90;;;;;;;21.21;100.00;98782.23;135296;1281;22573;-69
2023/06/29 05:25:08;;;;;;;30.30;16.60;;;;;;;21.45;100.00;98789.20;135278;1281;22641;-70
2023/06/29 05:28:11;;;;;;;31.30;16.80;;;;;;;21.39;100.00;98787.34;135240;1281;22535;-68
2023/06/29 05:31:14;;;;;;;35.00;19.50;;;;;;;21.40;100.00;98792.17;135292;1281;22523;-67
2023/06/29 05:34:16;;;;;;;32.30;16.20;;;;;;;21.63;99.87;98794.73;135302;1281;24268;-69
2023/06/29 05:37:19;;;;;;;29.00;14.70;;;;;;;21.52;98.22;98799.82;135286;1281;22532;-71
2023/06/29 05:40:21;;;;;;;32.10;15.30;;;;;;;21.52;98.22;98806.44;135291;1281;22612;-71
2023/06/29 05:43:24;;;;;;;30.20;13.50;;;;;;;21.38;97.11;98805.75;135244;1262;24258;-68
2023/06/29 05:46:26;;;;;;;34.10;14.90;;;;;;;21.47;99.83;98802.80;135266;1281;22549;-69
2023/06/29 05:49:28;;;;;;;28.40;15.00;;;;;;;21.82;99.08;98796.63;135312;1281;22557;-67
2023/06/29 05:52:33;;;;;;;27.60;13.80;;;;;;;22.14;96.77;98801.16;135267;1281;25343;-68
2023/06/29 05:55:36;;;;;;;25.80;12.70;;;;;;;22.06;91.69;98799.73;135273;1281;22512;-70
2023/06/29 05:58:38;;;;;;;24.80;11.90;;;;;;;21.79;91.76;98799.06;135265;1280;25906;-69
2023/06/29 06:01:41;;;;;;;26.40;12.10;;;;;;;21.66;94.89;98801.73;135294;1281;22583;-68
2023/06/29 06:04:43;;;;;;;30.80;13.70;;;;;;;21.58;95.31;98796.69;135309;1281;24206;-67
2023/06/29 06:07:46;;;;;;;26.80;11.70;;;;;;;21.75;95.44;98801.17;135266;1281;22523;-69
2023/06/29 06:10:49;;;;;;;27.80;12.50;;;;;;;21.92;93.58;98797.36;135333;1281;26580;-70
2023/06/29 06:13:51;;;;;;;24.00;11.90;;;;;;;22.13;93.01;98797.65;135325;1281;22543;-68
2023/06/29 06:16:54;;;;;;;26.70;12.20;;;;;;;22.15;91.59;98801.80;135295;1281;22552;-67
2023/06/29 06:19:56;;;;;;;25.10;11.70;;;;;;;22.26;87.42;98804.09;135310;1281;22543;-69
2023/06/29 06:22:59;;;;;;;27.50;12.30;;;;;;;22.02;87.94;98804.08;135284;1281;22550;-70
2023/06/29 06:26:02;;;;;;;25.10;11.10;;;;;;;22.11;93.50;98801.65;135251;1262;22521;-70
2023/06/29 06:29:05;;;;;;;23.20;10.30;;;;;;;22.30;91.12;98807.59;135296;1262;24233;-72
2023/06/29 06:32:08;;;;;;;25.40;10.70;;;;;;;22.54;87.19;98807.00;135294;1281;22519;-72
2023/06/29 06:35:10;;;;;;;25.00;11.50;;;;;;;22.57;87.38;98809.83;135208;1281;22531;-70
2023/06/29 06:38:13;;;;;;;24.80;12.30;;;;;;;22.70;89.54;98814.08;135259;1281;22578;-71
2023/06/29 06:41:15;;;;;;;22.90;10.40;;;;;;;22.50;86.92;98816.45;135208;1281;22641;-70
2023/06/29 06:44:18;;;;;;;27.20;11.20;;;;;;;22.41;86.53;98816.98;135302;1281;22522;-70
2023/06/29 06:47:20;;;;;;;26.80;12.10;;;;;;;22.20;88.56;98816.88;135267;1281;22533;-73
2023/06/29 06:50:23;;;;;;;25.60;11.90;;;;;;;22.13;87.09;98822.48;135314;1281;22542;-73
2023/06/29 06:53:27;;;;;;;25.60;10.10;;;;;;;21.94;86.42;98829.71;135273;1281;22530;-71
2023/06/29 06:56:29;;;;;;;25.00;12.00;;;;;;;21.74;86.71;98828.30;135313;1262;22635;-72
2023/06/29 06:59:31;;;;;;;27.00;11.40;;;;;;;21.72;87.62;98827.48;135276;1281;22541;-69
2023/06/29 07:02:34;;;;;;;23.90;10.20;;;;;;;21.96;88.13;98826.64;135336;1281;22535;-70
2023/06/29 07:05:37;;;;;;;26.30;11.50;;;;;;;22.42;85.51;98824.98;135250;1278;22523;-72
2023/06/29 07:08:39;;;;;;;24.60;10.30;;;;;;;22.83;84.77;98827.05;135230;1281;22534;-72
2023/06/29 07:11:42;;;;;;;25.90;11.30;;;;;;;23.14;82.61;98830.23;135272;1281;22543;-72
2023/06/29 07:14:45;;;;;;;25.40;11.10;;;;;;;22.97;83.06;98830.11;135279;1281;22553;-72
2023/06/29 07:17:48;;;;;;;23.40;10.40;;;;;;;22.78;81.65;98835.52;135278;1281;24243;-70
2023/06/29 07:20:51;;;;;;;23.60;9.80;;;;;;;22.60;81.86;98834.98;135326;1281;25313;-68
2023/06/29 07:23:54;;;;;;;23.80;9.90;;;;;;;22.77;79.97;98838.77;135282;1281;22581;-72
2023/06/29 07:26:56;;;;;;;22.70;9.70;;;;;;;23.13;80.46;98838.69;135283;1281;22520;-70
2023/06/29 07:29:58;;;;;;;23.10;9.80;;;;;;;23.75;77.25;98841.67;135310;1281;22627;-69
2023/06/29 07:33:01;;;;;;;29.00;11.70;;;;;;;23.81;73.61;98844.91;135316;1281;22530;-68
2023/06/29 07:36:04;;;;;;;26.20;11.00;;;;;;;23.60;75.80;98842.64;135298;1262;22550;-73
2023/06/29 07:39:07;;;;;;;22.00;8.90;;;;;;;23.39;78.01;98841.34;135295;1281;25241;-69
2023/06/29 07:42:10;;;;;;;22.40;9.30;;;;;;;23.13;77.76;98844.91;135308;1281;22553;-71
2023/06/29 07:45:13;;;;;;;22.70;9.40;;;;;;;23.11;77.73;98849.13;135244;1281;24210;-70
2023/06/29 07:48:17;;;;;;;26.50;10.50;;;;;;;23.10;78.46;98846.96;127427;1281;1003793;-70
2023/06/29 07:51:20;;;;;;;27.80;9.60;;;;;;;23.20;77.86;98852.17;67604;1281;1016328;-70
2023/06/29 07:54:22;;;;;;;28.20;10.70;;;;;;;23.21;76.49;98851.88;67592;1281;1016337;-65
2023/06/29 07:57:25;;;;;;;22.00;8.80;;;;;;;23.30;77.62;98859.49;67586;1281;1016296;-69
2023/06/29 08:00:27;;;;;;;24.10;8.10;;;;;;;23.60;75.36;98858.16;67569;1281;1016304;-72
2023/06/29 08:03:29;;;;;;;25.20;8.90;;;;;;;24.13;72.37;98860.11;67616;1281;1016965;-70
2023/06/29 08:06:32;;;;;;;27.00;9.30;;;;;;;24.00;71.88;98859.36;67640;1281;1018865;-70
2023/06/29 08:09:35;;;;;;;23.00;9.50;;;;;;;23.76;73.34;98857.99;67552;1281;1017153;-69
2023/06/29 08:12:37;;;;;;;24.30;10.30;;;;;;;23.40;74.91;98858.64;67592;1281;1016370;-70
2023/06/29 08:15:40;;;;;;;23.10;10.00;;;;;;;23.60;75.30;98860.11;67618;1281;1018440;-70
2023/06/29 08:18:42;;;;;;;23.10;9.60;;;;;;;23.53;73.01;98864.52;67599;1281;1016125;-70
2023/06/29 08:21:47;;;;;;;22.50;9.30;;;;;;;23.82;71.63;98857.29;67587;1281;1016430;-67
2023/06/29 08:24:51;;;;;;;22.70;8.80;;;;;;;24.20;72.26;98850.02;67622;1281;1016081;-70
2023/06/29 08:27:53;;;;;;;21.50;9.30;;;;;;;24.42;67.26;98852.96;67581;1281;1018122;-69
2023/06/29 08:30:56;;;;;;;22.30;8.60;;;;;;;24.42;67.49;98854.05;67632;1281;1016401;-70
2023/06/29 08:33:58;;;;;;;23.50;9.50;;;;;;;24.31;67.23;98855.89;67638;1281;1016476;-70
2023/06/29 08:37:01;;;;;;;23.40;9.60;;;;;;;24.68;71.09;98846.35;67593;1281;1016411;-70
2023/06/29 08:40:04;;;;;;;21.90;9.70;;;;;;;24.77;68.86;98852.27;67578;1281;1016372;-70
2023/06/29 08:43:08;;;;;;;23.50;9.10;;;;;;;24.81;68.73;98852.09;67588;1281;1016506;-70
2023/06/29 08:46:11;;;;;;;23.40;9.10;;;;;;;24.60;65.80;98855.31;67567;1281;1016078;-71
2023/06/29 08:49:13;;;;;;;21.70;8.90;;;;;;;24.35;66.47;98861.91;67601;1281;1016502;-71
2023/06/29 08:52:16;;;;;;;24.20;9.40;;;;;;;24.37;66.71;98864.63;67611;1281;1015895;-68
2023/06/29 08:55:19;;;;;;;22.30;9.40;;;;;;;24.62;66.18;98854.19;67560;1281;1016491;-66
2023/06/29 08:58:21;;;;;;;20.80;9.10;;;;;;;24.43;65.29;98862.54;67642;1281;1016390;-70
2023/06/29 09:01:24;;;;;;;22.10;9.00;;;;;;;24.16;66.40;98859.09;67596;1281;1018179;-65
2023/06/29 09:04:27;;;;;;;22.20;8.50;;;;;;;24.48;65.04;98856.96;67628;1281;1016533;-64
2023/06/29 09:07:29;;;;;;;22.00;9.40;;;;;;;24.75;66.02;98851.27;67596;1281;1016291;-63
2023/06/29 09:10:32;;;;;;;22.10;9.50;;;;;;;25.04;64.82;98849.74;67595;1281;1016014;-70
2023/06/29 09:13:34;;;;;;;21.70;9.20;;;;;;;25.08;63.50;98851.91;67622;1281;1016703;-69
2023/06/29 09:16:37;;;;;;;21.20;9.50;;;;;;;25.06;63.58;98848.81;67557;1279;1016572;-68
2023/06/29 09:19:42;;;;;;;21.70;9.10;;;;;;;25.06;63.05;98845.94;67591;1281;1016321;-68
2023/06/29 09:22:44;;;;;;;23.30;9.00;;;;;;;24.92;63.21;98844.77;67606;1281;1017247;-68
2023/06/29 09:25:46;;;;;;;19.70;8.50;;;;;;;24.65;64.46;98839.19;67621;1281;1016514;-69
2023/06/29 09:28:49;;;;;;;22.70;9.60;;;;;;;24.72;66.51;98839.41;67608;1281;1016455;-69
2023/06/29 09:31:51;;;;;;;20.20;8.60;;;;;;;24.69;64.67;98838.23;67553;1281;1016510;-69
2023/06/29 09:34:54;;;;;;;22.30;8.60;;;;;;;25.15;66.24;98832.87;67600;1281;1016437;-68
2023/06/29 09:37:56;;;;;;;23.80;9.20;;;;;;;25.66;63.31;98830.59;67595;1281;1016315;-65
2023/06/29 09:40:59;;;;;;;25.30;9.90;;;;;;;25.59;61.66;98834.11;67585;1281;1016457;-67
2023/06/29 09:44:02;;;;;;;21.60;8.70;;;;;;;25.78;60.85;98833.85;67532;1281;1016202;-68
2023/06/29 09:47:05;;;;;;;21.50;9.40;;;;;;;25.42;61.32;98828.71;67615;1281;1016387;-68
2023/06/29 09:50:07;;;;;;;22.70;8.90;;;;;;;25.48;61.97;98828.86;67584;1281;1016087;-65
2023/06/29 09:53:10;;;;;;;21.80;8.90;;;;;;;26.15;60.72;98824.48;67604;1281;1016504;-65
2023/06/29 09:56:16;;;;;;;23.00;8.60;;;;;;;26.37;59.74;98824.23;67601;1281;1016554;-65
2023/06/29 09:59:18;;;;;;;24.90;9.30;;;;;;;26.37;60.34;98819.77;67543;1281;1016379;-68
2023/06/29 10:02:21;;;;;;;20.50;7.80;;;;;;;26.86;60.49;98816.17;67588;1281;1016446;-67
2023/06/29 10:05:23;;;;;;;19.60;8.50;;;;;;;27.24;56.34;98816.71;67613;1281;1016450;-65
2023/06/29 10:08:27;;;;;;;21.10;8.10;;;;;;;27.63;56.74;98816.38;67557;1281;1016477;-66
2023/06/29 10:11:29;;;;;;;20.90;7.90;;;;;;;27.78;55.64;98814.20;67608;1281;1015999;-64
2023/06/29 10:14:32;;;;;;;20.60;7.60;;;;;;;27.55;56.21;98814.92;67599;1281;1016635;-68
2023/06/29 10:17:34;;;;;;;20.10;7.30;;;;;;;27.46;55.36;98815.23;67592;1281;1016619;-67
2023/06/29 10:20:37;;;;;;;19.50;8.10;;;;;;;27.69;55.61;98808.17;67610;1281;1016023;-68
2023/06/29 10:23:39;;;;;;;19.20;7.60;;;;;;;27.66;53.70;98814.32;67622;1281;1016272;-67
2023/06/29 10:26:41;;;;;;;23.80;7.70;;;;;;;27.24;55.80;98811.98;67604;1258;1018244;-68
2023/06/29 10:29:44;;;;;;;19.80;7.70;;;;;;;27.49;56.28;98811.13;67570;1281;1016454;-68
2023/06/29 10:32:47;;;;;;;18.70;7.00;;;;;;;27.85;53.57;98811.80;67624;1281;1016397;-68
2023/06/29 10:35:49;;;;;;;19.10;6.60;;;;;;;27.92;55.86;98804.08;67618;1281;1016498;-68
2023/06/29 10:38:51;;;;;;;18.20;6.70;;;;;;;28.01;53.24;98801.59;67620;1281;1016756;-68
2023/06/29 10:41:54;;;;;;;20.00;7.10;;;;;;;27.84;54.15;98803.36;67594;1281;1016430;-65
2023/06/29 10:44:57;;;;;;;19.20;6.00;;;;;;;27.75;53.70;98796.71;67599;1281;1016459;-67
2023/06/29 10:47:59;;;;;;;18.40;6.50;;;;;;;27.63;52.52;98796.98;67621;1281;1015781;-69
2023/06/29 10:51:02;;;;;;;17.50;6.00;;;;;;;27.59;52.03;98798.45;67579;1281;1016445;-68
2023/06/29 10:54:04;;;;;;;18.20;6.90;;;;;;;27.47;52.17;98789.79;67598;1281;1016304;-67
2023/06/29 10:57:07;;;;;;;18.00;6.00;;;;;;;27.63;53.28;98783.10;67612;1281;1016445;-68
2023/06/29 11:00:10;;;;;;;17.30;5.90;;;;;;;27.86;51.14;98789.05;67600;1281;1016219;-67
2023/06/29 11:03:12;;;;;;;16.00;5.40;;;;;;;28.13;51.68;98780.41;67629;1281;1016306;-68
2023/06/29 11:06:15;;;;;;;16.20;5.60;;;;;;;28.63;50.74;98774.13;67579;1281;1017181;-68
2023/06/29 11:09:18;;;;;;;14.10;5.10;;;;;;;29.00;49.97;98769.30;67603;1281;1020103;-68
2023/06/29 11:12:20;;;;;;;19.30;5.50;;;;;;;29.03;48.92;98773.57;67620;1281;1016822;-64
2023/06/29 11:15:23;;;;;;;15.90;5.70;;;;;;;29.33;47.90;98765.46;67594;1281;1016418;-69
2023/06/29 11:18:25;;;;;;;15.20;5.10;;;;;;;29.63;47.67;98767.06;67582;1281;1016175;-69
2023/06/29 11:21:28;;;;;;;15.30;5.30;;;;;;;29.79;47.73;98764.16;67592;1281;1016432;-67
2023/06/29 11:24:30;;;;;;;14.80;4.90;;;;;;;29.71;46.27;98759.68;67620;1281;1017416;-68
2023/06/29 11:27:32;;;;;;;15.50;5.00;;;;;;;30.04;46.90;98758.92;67641;1281;1016335;-67
2023/06/29 11:30:35;;;;;;;15.40;5.10;;;;;;;29.88;45.80;98756.95;67635;1281;1018166;-68
2023/06/29 11:33:37;;;;;;;16.10;5.10;;;;;;;29.93;45.04;98758.61;67579;1281;1017044;-69
2023/06/29 11:36:40;;;;;;;17.40;5.10;;;;;;;29.85;47.01;98753.98;67503;1281;1016345;-69
2023/06/29 11:39:42;;;;;;;13.80;5.20;;;;;;;29.63;46.17;98751.79;67597;1281;1016519;-69
2023/06/29 11:42:44;;;;;;;15.10;5.10;;;;;;;29.09;46.42;98755.69;67646;1281;1016485;-69
2023/06/29 11:45:47;;;;;;;19.40;6.00;;;;;;;28.96;47.17;98749.48;67621;1281;1016407;-69
2023/06/29 11:48:49;;;;;;;14.80;5.20;;;;;;;29.53;46.10;98744.16;67581;1281;1016519;-69
2023/06/29 11:51:52;;;;;;;14.90;4.50;;;;;;;30.06;45.49;98739.16;67582;1281;1018196;-67
2023/06/29 11:54:54;;;;;;;16.00;5.10;;;;;;;30.54;44.42;98737.41;67643;1281;1016634;-69
2023/06/29 11:57:57;;;;;;;16.10;4.70;;;;;;;30.68;43.30;98740.90;67646;1281;1016299;-69
2023/06/29 12:00:59;;;;;;;14.80;4.60;;;;;;;30.90;43.28;98737.09;67650;1281;1016526;-68
2023/06/29 12:04:01;;;;;;;14.80;4.80;;;;;;;31.19;42.59;98728.64;67594;1281;1016540;-68
2023/06/29 12:07:04;;;;;;;17.50;5.20;;;;;;;30.75;42.41;98736.19;67603;1281;1016410;-66
2023/06/29 12:10:07;;;;;;;17.10;4.50;;;;;;;30.40;42.74;98735.24;67656;1281;1016336;-63
2023/06/29 12:13:09;;;;;;;13.50;4.20;;;;;;;30.64;43.79;98720.16;67641;1281;1016288;-68
2023/06/29 12:16:11;;;;;;;12.80;4.30;;;;;;;31.08;42.91;98723.75;67611;1281;1017609;-63
2023/06/29 12:19:14;;;;;;;12.40;4.40;;;;;;;30.82;41.50;98729.23;67608;1281;1016368;-63
2023/06/29 12:22:16;;;;;;;13.10;4.20;;;;;;;29.99;41.80;98721.90;67608;1281;1016441;-63
2023/06/29 12:25:19;;;;;;;15.30;4.40;;;;;;;29.47;43.54;98723.36;67653;1281;1016424;-67
2023/06/29 12:28:21;;;;;;;13.30;4.50;;;;;;;29.63;43.97;98720.98;67670;1281;1015978;-69
2023/06/29 12:31:24;;;;;;;16.80;4.50;;;;;;;29.96;42.09;98713.09;67620;1281;1017250;-67
2023/06/29 12:34:28;;;;;;;13.00;4.50;;;;;;;29.77;42.46;98709.70;67565;1281;1016503;-67
2023/06/29 12:37:31;;;;;;;13.60;4.30;;;;;;;29.20;42.42;98713.50;67640;1281;1016564;-68
2023/06/29 12:40:33;;;;;;;12.30;4.20;;;;;;;29.48;43.56;98709.79;67657;1281;1016275;-68
2023/06/29 12:43:36;;;;;;;14.20;4.40;;;;;;;29.80;42.50;98704.52;67584;1281;1017147;-69
2023/06/29 12:46:38;;;;;;;13.30;4.10;;;;;;;30.13;43.36;98702.23;67577;1281;1016459;-70
2023/06/29 12:49:41;;;;;;;15.30;4.30;;;;;;;30.24;41.94;98701.73;67619;1281;1016480;-69
2023/06/29 12:52:43;;;;;;;13.40;4.70;;;;;;;30.60;41.20;98696.12;67661;1281;1016371;-69
2023/06/29 12:55:46;;;;;;;11.10;3.90;;;;;;;30.83;40.74;98687.20;67604;1281;1016324;-69
2023/06/29 12:58:48;;;;;;;12.70;4.20;;;;;;;31.53;41.55;98679.38;67602;1281;1017587;-68
2023/06/29 13:01:51;;;;;;;9.40;3.60;;;;;;;31.98;39.82;98674.82;67591;1281;1016165;-68
2023/06/29 13:04:53;;;;;;;10.40;3.70;;;;;;;31.95;37.55;98683.31;67645;1281;1016360;-64
2023/06/29 13:07:56;;;;;;;10.90;3.80;;;;;;;31.20;36.67;98685.47;67642;1281;1016520;-67
2023/06/29 13:10:59;;;;;;;10.40;3.60;;;;;;;30.76;37.26;98676.29;67611;1281;1016374;-68
2023/06/29 13:14:01;;;;;;;12.10;4.20;;;;;;;31.19;37.01;98676.77;67638;1281;1016531;-67
2023/06/29 13:17:04;;;;;;;12.00;3.90;;;;;;;31.19;37.23;98669.01;67617;1281;1016716;-69
2023/06/29 13:20:06;;;;;;;15.00;3.90;;;;;;;30.86;38.54;98676.67;67632;1281;1016320;-68
2023/06/29 13:23:09;;;;;;;14.60;4.40;;;;;;;30.73;40.49;98673.76;67636;1281;1016423;-67
2023/06/29 13:26:12;;;;;;;15.80;4.10;;;;;;;30.82;39.96;98677.64;67637;1281;1016425;-70
2023/06/29 13:29:14;;;;;;;12.00;4.00;;;;;;;30.95;40.12;98670.19;67569;1281;1018907;-69
2023/06/29 13:32:16;;;;;;;13.90;4.20;;;;;;;30.98;39.82;98672.06;67605;1281;1016545;-69
2023/06/29 13:35:19;;;;;;;12.60;3.80;;;;;;;31.20;39.23;98671.20;67617;1281;1016236;-67
2023/06/29 13:38:21;;;;;;;8.20;3.80;;;;;;;31.31;38.68;98663.65;67615;1281;1016424;-69
2023/06/29 13:41:24;;;;;;;12.90;3.80;;;;;;;31.45;37.98;98668.03;67643;1281;1018621;-69
2023/06/29 13:44:26;;;;;;;8.50;3.90;;;;;;;31.51;38.02;98661.21;67619;1281;1016420;-69
2023/06/29 13:47:29;;;;;;;24.00;4.20;;;;;;;31.45;38.00;98659.17;67649;1281;1016449;-68
2023/06/29 13:50:31;;;;;;;12.60;4.30;;;;;;;31.23;39.03;98657.13;67570;1281;1016374;-69
2023/06/29 13:53:33;;;;;;;13.20;4.20;;;;;;;31.54;39.46;98655.13;67644;1281;1016320;-70